Time;durP1;ratioP1;P1;durP2;ratioP2;P2;SDS_P1;SDS_P2;PMS_P1;PMS_P2;Temp;Humidity;BMP_temperature;BMP_pressure;BME280_temperature;BME280_humidity;BME280_pressure;Samples;Min_cycle;Max_cycle;Signal;HPM_P1;HPM_P2
2022/03/19 00:01:52;;;;;;;11.85;1.80;;;6.10;99.90;;;;;;5016746;28;20042;-79
2022/03/19 00:04:18;;;;;;;10.98;1.60;;;6.20;99.90;;;;;;4999092;28;20381;-78
2022/03/19 00:06:46;;;;;;;8.10;1.45;;;6.20;99.90;;;;;;5016585;28;20250;-79
2022/03/19 00:09:13;;;;;;;9.65;1.50;;;6.20;99.90;;;;;;5016604;28;20081;-79
2022/03/19 00:11:40;;;;;;;12.15;2.33;;;6.20;99.90;;;;;;5016415;28;20050;-79
2022/03/19 00:14:06;;;;;;;12.02;1.73;;;6.20;99.90;;;;;;5016528;28;20053;-78
2022/03/19 00:16:32;;;;;;;12.93;1.80;;;6.10;99.90;;;;;;5016339;28;20057;-78
2022/03/19 00:18:58;;;;;;;8.85;2.28;;;6.20;99.90;;;;;;4998972;28;20045;-79
2022/03/19 00:21:24;;;;;;;10.63;1.65;;;6.20;99.90;;;;;;5016319;28;20045;-78
2022/03/19 00:23:49;;;;;;;8.68;1.67;;;6.20;99.90;;;;;;4998746;28;20057;-78
2022/03/19 00:26:16;;;;;;;12.35;1.63;;;6.20;99.90;;;;;;4998432;28;20049;-78
2022/03/19 00:28:42;;;;;;;13.15;2.20;;;6.20;99.90;;;;;;5015900;28;20058;-78
2022/03/19 00:31:08;;;;;;;11.18;2.13;;;6.20;99.90;;;;;;5016201;28;20485;-78
2022/03/19 00:33:34;;;;;;;15.25;2.92;;;6.20;99.90;;;;;;4998611;28;20077;-78
2022/03/19 00:36:00;;;;;;;13.32;2.28;;;6.20;99.90;;;;;;4998526;28;20127;-78
2022/03/19 00:38:26;;;;;;;13.65;2.22;;;6.20;99.90;;;;;;5016091;28;20122;-78
2022/03/19 00:40:52;;;;;;;12.48;2.13;;;6.20;99.90;;;;;;5015824;28;20052;-78
2022/03/19 00:43:21;;;;;;;13.73;2.13;;;6.20;99.90;;;;;;5015907;28;20088;-78
2022/03/19 00:45:48;;;;;;;19.45;2.28;;;6.20;99.90;;;;;;5015775;28;20050;-78
2022/03/19 00:48:15;;;;;;;9.98;2.88;;;6.20;99.90;;;;;;5015957;28;20050;-78
2022/03/19 00:50:41;;;;;;;19.90;4.60;;;6.20;99.90;;;;;;5015743;28;20049;-78
2022/03/19 00:53:06;;;;;;;21.10;2.40;;;6.20;99.90;;;;;;5015747;28;20042;-78
2022/03/19 00:55:32;;;;;;;16.10;2.80;;;6.20;99.90;;;;;;4998338;28;20397;-79
2022/03/19 00:57:58;;;;;;;10.40;1.80;;;6.10;99.90;;;;;;5015839;28;20041;-79
2022/03/19 01:00:26;;;;;;;11.88;1.52;;;6.10;99.90;;;;;;5015640;28;20128;-78
2022/03/19 01:02:52;;;;;;;11.95;1.85;;;6.10;99.90;;;;;;4997285;28;20061;-79
2022/03/19 01:05:19;;;;;;;15.70;2.28;;;6.10;99.90;;;;;;5015380;28;20038;-79
2022/03/19 01:07:50;;;;;;;16.23;2.25;;;6.00;99.90;;;;;;5015496;28;20057;-79
2022/03/19 01:10:23;;;;;;;10.98;2.00;;;6.10;99.90;;;;;;5015619;28;20049;-78
2022/03/19 01:12:50;;;;;;;13.45;2.83;;;6.00;99.90;;;;;;5015475;28;20265;-78
2022/03/19 01:15:16;;;;;;;16.20;2.72;;;6.00;99.90;;;;;;5015475;28;20053;-78
2022/03/19 01:17:42;;;;;;;22.50;2.70;;;6.00;99.90;;;;;;5015230;28;20124;-78
2022/03/19 01:20:10;;;;;;;11.98;2.17;;;6.00;99.90;;;;;;5015271;28;20072;-78
2022/03/19 01:22:38;;;;;;;12.25;1.55;;;6.00;99.90;;;;;;5015774;28;20038;-78
2022/03/19 01:25:05;;;;;;;15.60;2.05;;;6.10;99.90;;;;;;5015395;28;20446;-78
2022/03/19 01:27:32;;;;;;;11.55;2.50;;;6.00;99.90;;;;;;5014995;28;20394;-79
2022/03/19 01:29:58;;;;;;;15.05;2.38;;;6.00;99.90;;;;;;5014754;28;20058;-79
2022/03/19 01:32:24;;;;;;;13.73;2.08;;;6.00;99.90;;;;;;5015020;28;20050;-79
2022/03/19 01:34:49;;;;;;;20.15;2.63;;;6.00;99.90;;;;;;5015034;28;20045;-78
2022/03/19 01:37:15;;;;;;;17.27;2.30;;;6.00;99.90;;;;;;4997572;28;20045;-78
2022/03/19 01:39:41;;;;;;;18.95;3.03;;;6.00;99.90;;;;;;4997420;28;20053;-79
2022/03/19 01:42:07;;;;;;;14.60;2.08;;;6.00;99.90;;;;;;5014872;28;20042;-79
2022/03/19 01:44:33;;;;;;;11.68;2.60;;;6.00;99.90;;;;;;4997481;28;20477;-79
2022/03/19 01:47:10;;;;;;;17.58;2.45;;;6.00;99.90;;;;;;4997125;28;20046;-79
2022/03/19 01:49:36;;;;;;;20.05;2.63;;;6.00;99.90;;;;;;5015008;28;20054;-78
2022/03/19 01:52:03;;;;;;;17.10;3.05;;;6.00;99.90;;;;;;5014677;28;20102;-79
2022/03/19 01:54:34;;;;;;;14.00;2.30;;;6.00;99.90;;;;;;5014566;28;20121;-79
2022/03/19 01:57:01;;;;;;;15.32;2.95;;;5.90;99.90;;;;;;5014678;28;20050;-78
2022/03/19 01:59:31;;;;;;;14.95;2.88;;;6.00;99.90;;;;;;5014520;28;20053;-78
2022/03/19 02:01:58;;;;;;;13.80;3.70;;;5.90;99.90;;;;;;5014607;28;20054;-78
2022/03/19 02:04:23;;;;;;;15.35;2.55;;;5.90;99.90;;;;;;5014386;28;20512;-78
2022/03/19 02:06:50;;;;;;;17.15;2.28;;;6.00;99.90;;;;;;5014414;28;20042;-79
2022/03/19 02:09:16;;;;;;;14.02;2.70;;;5.90;99.90;;;;;;5014491;28;20045;-79
2022/03/19 02:11:42;;;;;;;14.68;2.67;;;5.90;99.90;;;;;;5014436;28;20401;-78
2022/03/19 02:14:08;;;;;;;17.40;3.70;;;6.00;99.90;;;;;;5014278;28;20045;-79
2022/03/19 02:16:33;;;;;;;13.13;3.42;;;6.00;99.90;;;;;;5014303;28;20061;-78
2022/03/19 02:18:59;;;;;;;18.25;2.72;;;6.00;99.90;;;;;;5014171;28;20131;-78
2022/03/19 02:21:26;;;;;;;13.50;2.90;;;5.90;99.90;;;;;;5014198;28;20093;-79
2022/03/19 02:26:46;;;;;;;14.65;3.03;;;5.90;99.90;;;;;;5013811;28;20568;-79
2022/03/19 02:29:13;;;;;;;13.55;2.95;;;5.90;99.90;;;;;;5014219;28;20062;-79
2022/03/19 02:31:42;;;;;;;18.77;2.90;;;6.00;99.90;;;;;;4996677;28;20041;-78
2022/03/19 02:34:08;;;;;;;10.75;2.63;;;5.90;99.90;;;;;;5014101;28;20093;-79
2022/03/19 02:36:40;;;;;;;16.05;3.28;;;6.00;99.90;;;;;;5014030;28;20078;-79
2022/03/19 02:39:24;;;;;;;15.60;3.25;;;5.90;99.90;;;;;;4996412;28;20041;-78
2022/03/19 02:41:51;;;;;;;16.98;3.15;;;6.00;99.90;;;;;;5014040;28;20046;-79
2022/03/19 02:44:19;;;;;;;14.57;3.20;;;6.00;99.90;;;;;;4996273;28;20073;-79
2022/03/19 02:46:50;;;;;;;12.13;3.08;;;6.00;99.90;;;;;;4996267;28;20046;-79
2022/03/19 02:49:17;;;;;;;14.88;3.05;;;5.90;99.90;;;;;;4996330;28;20508;-79
2022/03/19 02:51:45;;;;;;;17.77;2.75;;;5.90;99.90;;;;;;4996249;28;20053;-79
2022/03/19 02:54:14;;;;;;;15.35;2.83;;;5.90;99.90;;;;;;4996324;28;20498;-79
2022/03/19 02:56:41;;;;;;;17.70;2.92;;;5.90;99.90;;;;;;5013869;28;20049;-79
2022/03/19 02:59:22;;;;;;;15.27;3.58;;;5.90;99.90;;;;;;5013829;28;20149;-79
2022/03/19 03:01:50;;;;;;;18.88;4.78;;;5.90;99.90;;;;;;5013777;28;20054;-78
2022/03/19 03:04:16;;;;;;;14.63;3.28;;;5.90;99.90;;;;;;4995987;28;20120;-79
2022/03/19 03:06:45;;;;;;;15.65;2.90;;;5.90;99.90;;;;;;5013679;28;20046;-79
2022/03/19 03:09:11;;;;;;;12.25;2.92;;;5.90;99.90;;;;;;5013707;28;20052;-78
2022/03/19 03:11:38;;;;;;;18.25;3.25;;;5.90;99.90;;;;;;4996220;28;20053;-79
2022/03/19 03:14:05;;;;;;;14.40;4.10;;;5.80;99.90;;;;;;5013727;28;20522;-79
2022/03/19 03:16:32;;;;;;;20.80;4.45;;;5.80;99.90;;;;;;5013574;28;20045;-79
2022/03/19 03:19:05;;;;;;;14.63;3.45;;;5.80;99.90;;;;;;5013631;28;20050;-79
2022/03/19 03:21:35;;;;;;;19.20;3.15;;;5.80;99.90;;;;;;5013579;28;20046;-79
2022/03/19 03:24:02;;;;;;;13.25;4.03;;;5.70;99.90;;;;;;5013647;28;20046;-79
2022/03/19 03:26:30;;;;;;;11.45;2.97;;;5.70;99.90;;;;;;5016533;28;20488;-79
2022/03/19 03:28:56;;;;;;;14.73;3.60;;;5.70;99.90;;;;;;4999442;28;20056;-79
2022/03/19 03:31:23;;;;;;;13.02;3.40;;;5.70;99.90;;;;;;5017280;28;20049;-78
2022/03/19 03:33:48;;;;;;;12.73;4.32;;;5.60;99.90;;;;;;4999574;28;20049;-79
2022/03/19 03:36:15;;;;;;;19.10;3.83;;;5.50;99.90;;;;;;5000222;28;20132;-79
2022/03/19 03:38:41;;;;;;;16.23;3.92;;;5.50;99.90;;;;;;5017189;28;20133;-79
2022/03/19 03:41:07;;;;;;;19.35;3.83;;;5.50;99.90;;;;;;4999576;28;20057;-79
2022/03/19 03:43:33;;;;;;;15.98;3.78;;;5.50;99.90;;;;;;5017072;28;20045;-79
2022/03/19 03:45:59;;;;;;;15.88;4.15;;;5.50;99.90;;;;;;5016755;28;20052;-79
2022/03/19 03:48:24;;;;;;;12.18;3.85;;;5.40;99.90;;;;;;5017051;28;20085;-79
2022/03/19 03:50:53;;;;;;;10.23;3.95;;;5.30;99.90;;;;;;4999284;28;20046;-79
2022/03/19 03:53:19;;;;;;;18.33;4.30;;;5.30;99.90;;;;;;5016881;28;20046;-79
2022/03/19 03:55:45;;;;;;;13.32;3.85;;;5.30;99.90;;;;;;4999032;28;20056;-79
2022/03/19 03:58:11;;;;;;;18.45;4.53;;;5.30;99.90;;;;;;5016832;28;20048;-79
2022/03/19 04:00:38;;;;;;;15.52;4.90;;;5.30;99.90;;;;;;4999023;28;20057;-79
2022/03/19 04:03:04;;;;;;;15.73;4.20;;;5.20;99.90;;;;;;5016755;28;20042;-79
2022/03/19 04:05:30;;;;;;;17.70;4.80;;;5.20;99.90;;;;;;5016628;28;20049;-79
2022/03/19 04:07:57;;;;;;;11.80;4.53;;;5.10;99.90;;;;;;4998953;28;20061;-79
2022/03/19 04:10:22;;;;;;;17.90;5.38;;;5.00;99.90;;;;;;4999072;28;20045;-79
2022/03/19 04:12:48;;;;;;;17.77;5.10;;;5.00;99.90;;;;;;5016538;28;20057;-79
2022/03/19 04:15:14;;;;;;;14.98;5.35;;;5.00;99.90;;;;;;4998992;28;20053;-79
2022/03/19 04:17:40;;;;;;;14.45;5.55;;;4.90;99.90;;;;;;5016492;28;20042;-79
2022/03/19 04:20:07;;;;;;;16.75;4.82;;;4.80;99.90;;;;;;4998815;28;20511;-79
2022/03/19 04:22:34;;;;;;;16.63;5.35;;;4.80;99.90;;;;;;4998913;28;20133;-79
2022/03/19 04:25:00;;;;;;;14.68;5.80;;;4.80;99.90;;;;;;5016295;28;20041;-79
2022/03/19 04:27:25;;;;;;;17.17;5.22;;;4.80;99.90;;;;;;4998932;28;20076;-79
2022/03/19 04:29:51;;;;;;;17.92;5.00;;;4.70;99.90;;;;;;5015918;28;20408;-79
2022/03/19 04:32:17;;;;;;;15.05;5.75;;;4.70;99.90;;;;;;5016224;28;20056;-79
2022/03/19 04:34:43;;;;;;;21.55;5.90;;;4.70;99.90;;;;;;4998474;28;20053;-79
2022/03/19 04:37:09;;;;;;;18.48;6.57;;;4.70;99.90;;;;;;4997395;28;20045;-78
2022/03/19 04:39:34;;;;;;;21.17;6.65;;;4.60;99.90;;;;;;5016083;28;20472;-79
2022/03/19 04:42:00;;;;;;;21.88;7.63;;;4.60;99.90;;;;;;4998700;28;20044;-79
2022/03/19 04:44:26;;;;;;;14.63;6.25;;;4.50;99.90;;;;;;5015989;28;20096;-79
2022/03/19 04:46:51;;;;;;;20.17;8.23;;;4.50;99.90;;;;;;5015818;28;20049;-79
2022/03/19 04:49:17;;;;;;;19.17;7.15;;;4.50;99.90;;;;;;5015770;28;20481;-79
2022/03/19 04:51:43;;;;;;;22.30;8.15;;;4.50;99.90;;;;;;5015854;28;20033;-79
2022/03/19 04:54:08;;;;;;;20.08;7.35;;;4.50;99.90;;;;;;5015904;28;20050;-79
2022/03/19 04:56:34;;;;;;;19.23;9.55;;;4.50;99.90;;;;;;5015747;28;20393;-79
2022/03/19 04:59:01;;;;;;;22.42;8.15;;;4.50;99.90;;;;;;5015922;28;20366;-78
2022/03/19 05:01:29;;;;;;;16.95;8.25;;;4.50;99.90;;;;;;5015611;28;20038;-79
2022/03/19 05:03:54;;;;;;;23.52;9.05;;;4.40;99.90;;;;;;5015447;28;20389;-79
2022/03/19 05:06:21;;;;;;;24.92;9.18;;;4.50;99.90;;;;;;5015418;28;20493;-79
2022/03/19 05:11:12;;;;;;;23.50;9.30;;;4.40;99.90;;;;;;4998124;28;20389;-79
2022/03/19 05:11:33;;;;;;;24.75;10.50;;;4.40;99.90;;;;;;4997652;28;20486;-79
2022/03/19 05:13:59;;;;;;;18.63;8.32;;;4.30;99.90;;;;;;4997722;28;20057;-78
2022/03/19 05:16:24;;;;;;;23.30;8.73;;;4.30;99.90;;;;;;4997732;28;20060;-78
2022/03/19 05:18:50;;;;;;;19.38;8.93;;;4.30;99.90;;;;;;4997969;28;20045;-78
2022/03/19 05:21:17;;;;;;;25.23;9.20;;;4.30;99.90;;;;;;4997733;28;20086;-78
2022/03/19 05:23:45;;;;;;;19.55;8.73;;;4.20;99.90;;;;;;4997639;28;20503;-79
2022/03/19 05:26:11;;;;;;;23.67;8.65;;;4.10;99.90;;;;;;4997374;28;20061;-78
2022/03/19 05:28:36;;;;;;;20.65;8.65;;;4.10;99.90;;;;;;5015046;28;20104;-79
2022/03/19 05:31:03;;;;;;;21.10;9.18;;;4.00;99.90;;;;;;4997135;28;20054;-79
2022/03/19 05:36:13;;;;;;;20.83;9.02;;;4.00;99.90;;;;;;5014498;28;20137;-79
2022/03/19 05:38:39;;;;;;;23.30;8.50;;;4.00;99.90;;;;;;5014680;28;20124;-79
2022/03/19 05:41:05;;;;;;;23.55;9.55;;;3.90;99.90;;;;;;5014725;28;20046;-79
2022/03/19 05:43:31;;;;;;;20.55;9.48;;;3.90;99.90;;;;;;4997363;28;20050;-79
2022/03/19 05:45:56;;;;;;;20.13;8.90;;;3.90;99.90;;;;;;5014581;28;20069;-79
2022/03/19 05:48:22;;;;;;;22.13;8.70;;;3.90;99.90;;;;;;5014331;28;20407;-79
2022/03/19 05:50:47;;;;;;;21.13;9.57;;;3.90;99.90;;;;;;5014427;28;20481;-79
2022/03/19 05:53:13;;;;;;;23.20;9.13;;;3.90;99.90;;;;;;4996858;28;20057;-79
2022/03/19 05:55:38;;;;;;;22.50;11.02;;;3.80;99.90;;;;;;4996819;28;20057;-79
2022/03/19 05:58:04;;;;;;;22.80;9.57;;;3.80;99.90;;;;;;5014297;28;20041;-79
2022/03/19 06:00:30;;;;;;;21.25;9.85;;;3.80;99.90;;;;;;5014315;28;20088;-79
2022/03/19 06:02:55;;;;;;;19.55;10.20;;;3.90;99.90;;;;;;5014321;28;20137;-79
2022/03/19 06:05:21;;;;;;;24.67;10.38;;;3.90;99.90;;;;;;5014296;28;20382;-79
2022/03/19 06:07:46;;;;;;;21.27;9.45;;;3.90;99.90;;;;;;5014349;28;20046;-79
2022/03/19 06:10:12;;;;;;;18.15;9.93;;;3.90;99.90;;;;;;5014347;28;20045;-78
2022/03/19 06:12:38;;;;;;;25.50;10.75;;;3.90;99.90;;;;;;4996213;28;20441;-79
2022/03/19 06:15:04;;;;;;;21.80;10.10;;;3.90;99.90;;;;;;4996709;28;20076;-79
2022/03/19 06:17:30;;;;;;;23.48;9.88;;;3.90;99.90;;;;;;5014273;28;20037;-79
2022/03/19 06:19:55;;;;;;;22.08;10.57;;;4.00;99.90;;;;;;5013797;28;20485;-78
2022/03/19 06:22:23;;;;;;;20.15;9.98;;;4.00;99.90;;;;;;4996674;28;20064;-78
2022/03/19 06:24:49;;;;;;;22.60;10.88;;;4.10;99.90;;;;;;5014201;28;20061;-79
2022/03/19 06:27:14;;;;;;;24.73;10.88;;;4.20;99.90;;;;;;5013875;28;20441;-78
2022/03/19 06:29:40;;;;;;;27.17;10.68;;;4.30;99.90;;;;;;5013645;28;20394;-79
2022/03/19 06:32:06;;;;;;;22.55;9.63;;;4.30;99.90;;;;;;5013757;28;20050;-79
2022/03/19 06:34:32;;;;;;;21.45;9.88;;;4.40;99.90;;;;;;5013712;28;20050;-79
2022/03/19 06:39:43;;;;;;;20.77;10.80;;;4.60;99.90;;;;;;5013968;28;20073;-79
2022/03/19 06:42:09;;;;;;;26.70;11.18;;;4.60;99.90;;;;;;5013823;28;20444;-79
2022/03/19 06:44:35;;;;;;;25.63;10.43;;;4.70;99.90;;;;;;5013964;28;20492;-79
2022/03/19 06:47:01;;;;;;;18.90;8.30;;;4.80;99.90;;;;;;5013780;28;20132;-79
2022/03/19 06:49:28;;;;;;;22.50;10.48;;;4.80;99.90;;;;;;5013555;28;20129;-79
2022/03/19 06:51:54;;;;;;;20.90;8.82;;;4.90;99.90;;;;;;5013821;28;20042;-79
2022/03/19 06:54:20;;;;;;;21.25;9.70;;;5.00;99.90;;;;;;5013508;28;20041;-79
2022/03/19 06:56:46;;;;;;;19.17;8.88;;;5.10;99.90;;;;;;5013637;28;20042;-78
2022/03/19 06:59:11;;;;;;;17.95;8.50;;;5.10;99.90;;;;;;4996203;28;20050;-78
2022/03/19 07:01:37;;;;;;;17.13;9.20;;;5.20;99.90;;;;;;5017019;28;20516;-79
2022/03/19 07:04:03;;;;;;;18.02;9.40;;;5.30;99.90;;;;;;5017683;28;20056;-79
2022/03/19 07:06:29;;;;;;;17.92;8.80;;;5.30;99.90;;;;;;5017743;28;20050;-81
2022/03/19 07:08:55;;;;;;;14.20;7.40;;;5.40;99.90;;;;;;5017738;28;20073;-79
2022/03/19 07:11:21;;;;;;;21.08;8.55;;;5.50;99.90;;;;;;5017405;28;20050;-79
2022/03/19 07:13:47;;;;;;;18.42;8.65;;;5.60;99.90;;;;;;5010802;28;20042;-79
2022/03/19 07:16:15;;;;;;;16.08;7.75;;;5.60;99.90;;;;;;4999852;28;20042;-78
2022/03/19 07:18:40;;;;;;;18.42;7.50;;;5.70;99.90;;;;;;4997763;28;20073;-77
2022/03/19 07:21:06;;;;;;;15.10;7.60;;;5.80;99.90;;;;;;4997479;28;20092;-78
2022/03/19 07:23:32;;;;;;;14.57;6.95;;;5.80;99.90;;;;;;4997659;28;20049;-77
2022/03/19 07:25:59;;;;;;;18.38;6.50;;;5.90;99.90;;;;;;4997388;28;20082;-78
2022/03/19 07:28:26;;;;;;;16.40;7.55;;;5.90;99.90;;;;;;4979824;28;20486;-78
2022/03/19 07:30:52;;;;;;;20.08;7.97;;;6.00;99.90;;;;;;4997579;28;20042;-79
2022/03/19 07:33:18;;;;;;;12.75;6.43;;;6.10;99.90;;;;;;4980161;28;20401;-79
2022/03/19 07:35:43;;;;;;;16.83;7.20;;;6.20;99.90;;;;;;4997405;28;20046;-79
2022/03/19 07:38:11;;;;;;;15.45;6.43;;;6.30;99.90;;;;;;4997119;28;20046;-79
2022/03/19 07:43:24;;;;;;;17.98;6.60;;;6.40;99.90;;;;;;4997273;28;20120;-78
2022/03/19 07:45:51;;;;;;;14.10;6.75;;;6.70;99.90;;;;;;4997154;28;20050;-79
2022/03/19 07:48:18;;;;;;;15.57;6.63;;;6.70;99.90;;;;;;4997264;28;20050;-78
2022/03/19 07:50:44;;;;;;;12.20;5.45;;;6.80;99.90;;;;;;4979426;28;20082;-79
2022/03/19 07:53:10;;;;;;;16.63;6.65;;;7.00;99.90;;;;;;4997086;28;20042;-78
2022/03/19 07:55:36;;;;;;;12.85;5.88;;;7.00;99.90;;;;;;4996702;28;20043;-79
2022/03/19 07:58:02;;;;;;;16.05;4.75;;;7.10;99.90;;;;;;4979798;28;20054;-78
2022/03/19 08:00:28;;;;;;;12.30;5.13;;;7.20;99.90;;;;;;4996903;28;20046;-78
2022/03/19 08:02:54;;;;;;;14.25;5.25;;;7.30;99.90;;;;;;4979226;28;20112;-78
2022/03/19 08:05:20;;;;;;;11.23;4.22;;;7.40;99.90;;;;;;4996507;28;20391;-78
2022/03/19 08:07:46;;;;;;;19.10;5.30;;;7.50;99.90;;;;;;4996893;28;20532;-78
2022/03/19 08:10:12;;;;;;;14.45;4.47;;;7.60;99.90;;;;;;4996433;28;20556;-78
2022/03/19 08:12:40;;;;;;;12.70;4.40;;;7.70;99.90;;;;;;4996618;28;20046;-79
2022/03/19 08:15:07;;;;;;;14.27;4.00;;;7.80;99.90;;;;;;4978975;28;20112;-78
2022/03/19 08:17:36;;;;;;;11.88;4.93;;;7.90;99.90;;;;;;4996543;28;20084;-78
2022/03/19 08:20:04;;;;;;;16.80;5.00;;;8.00;99.90;;;;;;4979116;28;20520;-78
2022/03/19 08:22:30;;;;;;;10.57;4.20;;;8.00;99.90;;;;;;4996573;28;20043;-78
2022/03/19 08:24:55;;;;;;;10.85;4.40;;;8.20;99.90;;;;;;5003982;28;20056;-78
2022/03/19 08:27:24;;;;;;;15.80;4.35;;;8.20;99.90;;;;;;4998001;28;20085;-78
2022/03/19 08:29:50;;;;;;;22.15;4.28;;;8.40;99.90;;;;;;5015635;28;20205;-79
2022/03/19 08:32:16;;;;;;;12.88;4.60;;;8.50;99.90;;;;;;5015199;28;20054;-78
2022/03/19 08:34:44;;;;;;;12.95;4.10;;;8.50;99.90;;;;;;5015701;28;20054;-78
2022/03/19 08:37:09;;;;;;;17.45;5.88;;;8.60;99.90;;;;;;4998184;28;20478;-78
2022/03/19 08:42:19;;;;;;;11.25;3.50;;;8.70;99.90;;;;;;5007463;28;20119;-78
2022/03/19 08:44:45;;;;;;;16.67;5.25;;;8.70;99.90;;;;;;4997474;28;20470;-78
2022/03/19 08:47:11;;;;;;;14.15;4.15;;;8.80;99.90;;;;;;5015307;28;20141;-78
2022/03/19 08:49:36;;;;;;;9.55;3.55;;;8.80;99.90;;;;;;5015710;28;20065;-78
2022/03/19 08:52:02;;;;;;;12.73;4.03;;;9.00;99.90;;;;;;5014923;28;20084;-78
2022/03/19 08:54:28;;;;;;;11.27;3.70;;;9.10;99.90;;;;;;5015351;28;20042;-78
2022/03/19 08:56:54;;;;;;;12.25;3.88;;;9.30;99.90;;;;;;5015024;28;20528;-78
2022/03/19 08:59:20;;;;;;;12.00;4.50;;;9.40;99.90;;;;;;5015427;28;20453;-78
2022/03/19 09:01:47;;;;;;;10.98;3.50;;;9.40;99.90;;;;;;5014971;28;20116;-78
2022/03/19 09:04:13;;;;;;;9.30;3.33;;;9.50;99.90;;;;;;5014989;28;20378;-79
2022/03/19 09:06:39;;;;;;;11.90;4.07;;;9.60;99.90;;;;;;5014915;28;20060;-79
2022/03/19 09:09:06;;;;;;;12.10;3.17;;;9.70;99.90;;;;;;5013887;28;20125;-79
2022/03/19 09:11:33;;;;;;;10.70;3.65;;;9.80;99.90;;;;;;5014522;28;20489;-79
2022/03/19 09:14:00;;;;;;;13.98;3.38;;;9.80;99.90;;;;;;5013980;28;20503;-79
2022/03/19 09:16:26;;;;;;;8.63;2.63;;;9.70;99.90;;;;;;5014623;28;20056;-79
2022/03/19 09:18:52;;;;;;;9.43;2.90;;;9.70;99.90;;;;;;5014333;28;20563;-79
2022/03/19 09:21:18;;;;;;;14.70;3.30;;;9.80;99.90;;;;;;5014804;28;20058;-79
2022/03/19 09:23:45;;;;;;;12.38;3.15;;;9.80;99.90;;;;;;5014424;28;20038;-79
2022/03/19 09:26:14;;;;;;;12.40;3.13;;;9.70;99.90;;;;;;5013824;28;20520;-79
2022/03/19 09:28:40;;;;;;;16.67;3.83;;;9.80;99.90;;;;;;5014551;28;20042;-79
2022/03/19 09:31:06;;;;;;;10.07;3.00;;;9.90;99.90;;;;;;5015002;28;20046;-79
2022/03/19 09:33:32;;;;;;;10.02;2.50;;;9.90;99.90;;;;;;5013989;28;20406;-79
2022/03/19 09:36:01;;;;;;;11.73;2.58;;;10.00;99.90;;;;;;5014660;28;20047;-79
2022/03/19 09:38:27;;;;;;;8.13;2.33;;;10.30;99.90;;;;;;5014301;28;20117;-79
2022/03/19 09:40:54;;;;;;;9.77;2.38;;;10.50;99.90;;;;;;5014338;28;20139;-79
2022/03/19 09:43:22;;;;;;;10.82;2.60;;;10.50;99.90;;;;;;5013858;28;20056;-79
2022/03/19 09:45:48;;;;;;;14.75;3.05;;;10.60;99.90;;;;;;5013755;28;20045;-79
2022/03/19 09:48:14;;;;;;;10.07;3.35;;;10.80;99.90;;;;;;4996120;28;20050;-79
2022/03/19 09:50:39;;;;;;;10.57;2.42;;;10.90;99.90;;;;;;5013942;28;20049;-79
2022/03/19 09:53:06;;;;;;;11.43;2.83;;;10.90;99.90;;;;;;4996637;28;20048;-79
2022/03/19 09:55:34;;;;;;;9.13;2.70;;;11.10;99.90;;;;;;4996136;28;20077;-79
2022/03/19 09:58:01;;;;;;;7.57;1.70;;;11.20;99.90;;;;;;5014126;28;20129;-78
2022/03/19 10:00:27;;;;;;;9.85;2.85;;;11.30;99.90;;;;;;4996131;28;20401;-79
2022/03/19 10:02:56;;;;;;;7.45;2.25;;;11.10;99.90;;;;;;5014257;28;20050;-79
2022/03/19 10:10:55;;;;;;;9.98;3.30;;;11.30;99.90;;;;;;5013628;28;20057;-79
2022/03/19 10:13:22;;;;;;;14.77;2.28;;;11.30;99.90;;;;;;4995888;28;20052;-78
2022/03/19 10:15:48;;;;;;;9.30;3.65;;;11.40;99.90;;;;;;5013630;28;20484;-78
2022/03/19 10:18:14;;;;;;;9.82;3.53;;;11.30;99.90;;;;;;4996261;28;20128;-79
2022/03/19 10:20:40;;;;;;;14.30;3.72;;;11.40;99.90;;;;;;5012254;28;20042;-79
2022/03/19 10:23:06;;;;;;;11.77;3.92;;;11.00;99.90;;;;;;4995850;28;20053;-79
2022/03/19 10:25:31;;;;;;;13.43;3.85;;;10.70;99.90;;;;;;5013844;28;20397;-78
2022/03/19 10:28:03;;;;;;;14.48;4.43;;;10.50;99.90;;;;;;5014016;28;20046;-78
2022/03/19 10:30:40;;;;;;;15.70;4.38;;;10.60;99.90;;;;;;4995383;28;20054;-79
2022/03/19 10:33:10;;;;;;;14.95;4.50;;;10.50;99.90;;;;;;5013485;28;20054;-78
2022/03/19 10:35:41;;;;;;;14.10;4.13;;;10.60;99.90;;;;;;5012600;28;20509;-78
2022/03/19 10:38:44;;;;;;;11.82;3.85;;;10.60;99.90;;;;;;4995968;28;20050;-78
2022/03/19 10:41:11;;;;;;;12.20;4.68;;;10.50;99.90;;;;;;4983416;28;20073;-78
2022/03/19 10:43:38;;;;;;;11.15;3.90;;;10.60;99.90;;;;;;5013521;28;20050;-78
2022/03/19 10:46:04;;;;;;;12.93;3.65;;;10.70;99.90;;;;;;5013388;28;20050;-79
2022/03/19 10:48:30;;;;;;;16.48;4.05;;;10.70;99.90;;;;;;4995843;28;20065;-79
2022/03/19 10:51:01;;;;;;;15.80;4.07;;;10.70;99.90;;;;;;5013460;28;20393;-78
2022/03/19 10:53:27;;;;;;;11.73;3.95;;;10.90;99.90;;;;;;4996147;28;20511;-79
2022/03/19 10:55:53;;;;;;;12.60;3.80;;;10.50;99.90;;;;;;5013340;28;20046;-78
2022/03/19 10:58:19;;;;;;;13.25;3.28;;;10.40;99.90;;;;;;5013520;28;20041;-78
2022/03/19 11:00:50;;;;;;;11.18;4.20;;;10.50;99.90;;;;;;4995787;28;20053;-78
2022/03/19 11:03:25;;;;;;;12.88;3.58;;;10.70;99.90;;;;;;4995900;28;20050;-78
2022/03/19 11:06:01;;;;;;;12.30;2.90;;;10.70;99.90;;;;;;5013334;28;20058;-79
2022/03/19 11:08:30;;;;;;;11.93;3.78;;;10.80;99.90;;;;;;5013451;28;20120;-79
2022/03/19 11:10:59;;;;;;;7.82;3.17;;;10.60;99.90;;;;;;5013262;28;20144;-78
2022/03/19 11:13:30;;;;;;;13.82;4.10;;;10.40;99.90;;;;;;5013431;28;20097;-78
2022/03/19 11:15:59;;;;;;;9.10;3.20;;;10.40;99.90;;;;;;5013542;28;20077;-78
2022/03/19 11:18:26;;;;;;;13.82;3.63;;;10.30;99.90;;;;;;5013415;28;20100;-78
2022/03/19 11:20:52;;;;;;;8.95;3.22;;;10.40;99.90;;;;;;5012260;28;20062;-77
2022/03/19 11:23:26;;;;;;;11.48;3.25;;;10.20;99.90;;;;;;4994699;28;20038;-78
2022/03/19 11:25:54;;;;;;;8.00;2.65;;;10.40;99.90;;;;;;4995467;28;20049;-78
2022/03/19 11:28:21;;;;;;;8.98;2.65;;;10.50;99.90;;;;;;5012505;28;20046;-78
2022/03/19 11:31:03;;;;;;;8.68;2.78;;;10.40;99.90;;;;;;5013050;28;20412;-78
2022/03/19 11:33:31;;;;;;;15.30;3.40;;;10.40;99.90;;;;;;4984647;28;20165;-78
2022/03/19 11:36:00;;;;;;;7.97;2.60;;;10.30;99.90;;;;;;4978410;28;20164;-78
2022/03/19 11:38:28;;;;;;;15.02;3.80;;;10.40;99.90;;;;;;4996420;28;20107;-79
2022/03/19 11:40:55;;;;;;;7.53;2.30;;;10.30;99.90;;;;;;5012831;28;20045;-78
2022/03/19 11:43:27;;;;;;;8.25;2.33;;;10.40;99.90;;;;;;5028870;28;20046;-79
2022/03/19 11:45:57;;;;;;;11.05;3.40;;;10.50;99.90;;;;;;5012035;28;20046;-79
2022/03/19 11:48:38;;;;;;;8.43;2.25;;;10.40;99.90;;;;;;5016590;28;20496;-79
2022/03/19 11:51:28;;;;;;;10.85;2.30;;;10.70;99.90;;;;;;5026767;28;20072;-78
2022/03/19 11:54:02;;;;;;;9.90;2.20;;;10.70;99.90;;;;;;5034645;28;20043;-79
2022/03/19 11:56:48;;;;;;;11.07;2.22;;;10.70;99.90;;;;;;5036411;28;20041;-79
2022/03/19 11:59:16;;;;;;;10.02;2.60;;;10.90;99.90;;;;;;5017612;28;20484;-80
2022/03/19 12:01:58;;;;;;;10.90;2.28;;;10.60;99.90;;;;;;5036520;28;20052;-80
2022/03/19 12:04:25;;;;;;;9.45;2.00;;;10.60;99.90;;;;;;5018768;28;20053;-80
2022/03/19 12:06:56;;;;;;;8.57;1.65;;;10.60;99.90;;;;;;5017818;28;20053;-79
2022/03/19 12:09:39;;;;;;;10.75;3.47;;;10.60;99.90;;;;;;5036313;28;20046;-79
2022/03/19 12:12:26;;;;;;;15.00;3.40;;;10.50;99.90;;;;;;5036319;28;20073;-79
2022/03/19 12:14:52;;;;;;;11.60;3.80;;;10.10;99.90;;;;;;5018269;28;20484;-78
2022/03/19 12:17:23;;;;;;;14.20;3.35;;;10.30;99.90;;;;;;5036023;28;20056;-78
2022/03/19 12:20:01;;;;;;;12.15;2.75;;;10.20;99.90;;;;;;5018701;28;20570;-79
2022/03/19 12:22:40;;;;;;;15.50;2.88;;;10.10;99.90;;;;;;5035841;28;20056;-79
2022/03/19 12:25:18;;;;;;;17.15;2.78;;;10.20;99.90;;;;;;5036080;28;20081;-79
2022/03/19 12:27:57;;;;;;;17.67;3.08;;;10.10;99.90;;;;;;5035632;28;20056;-79
2022/03/19 12:30:25;;;;;;;12.20;2.72;;;10.20;99.90;;;;;;5017853;28;20061;-79
2022/03/19 12:32:56;;;;;;;17.52;3.13;;;10.20;99.90;;;;;;5035598;28;20120;-79
2022/03/19 12:35:23;;;;;;;14.65;2.55;;;10.20;99.90;;;;;;5035969;28;20041;-79
2022/03/19 12:37:55;;;;;;;14.90;2.80;;;10.20;99.90;;;;;;5017745;28;20489;-80
2022/03/19 12:40:27;;;;;;;12.02;2.47;;;10.30;99.90;;;;;;5035851;28;20040;-79
2022/03/19 12:42:57;;;;;;;12.52;3.25;;;10.30;99.90;;;;;;5035331;28;20114;-79
2022/03/19 12:45:39;;;;;;;10.40;3.03;;;10.30;99.90;;;;;;5017770;28;20037;-79
2022/03/19 12:48:13;;;;;;;17.73;3.25;;;10.20;99.90;;;;;;5017786;28;20103;-80
2022/03/19 12:50:41;;;;;;;15.45;3.92;;;10.30;99.90;;;;;;5035622;28;20047;-79
2022/03/19 12:53:07;;;;;;;11.18;2.40;;;10.40;99.90;;;;;;5017589;28;20054;-78
2022/03/19 12:55:32;;;;;;;12.85;3.05;;;10.40;99.90;;;;;;5035296;28;20033;-78
2022/03/19 12:58:01;;;;;;;13.65;3.42;;;10.50;99.90;;;;;;5034178;28;20484;-77
2022/03/19 13:00:27;;;;;;;16.77;3.05;;;10.30;99.90;;;;;;5035112;28;20452;-79
2022/03/19 13:02:54;;;;;;;15.65;3.50;;;10.50;99.90;;;;;;5035122;28;20473;-79
2022/03/19 13:05:21;;;;;;;13.30;3.53;;;10.30;99.90;;;;;;5017312;28;20045;-79
2022/03/19 13:08:07;;;;;;;10.27;3.17;;;10.20;99.90;;;;;;5035348;28;20061;-79